<?xml version="1.0" encoding="UTF-8" standalone="no" ?>
<gpx xmlns="http://www.topografix.com/GPX/1/1" xmlns:xsi="http://www.w3.org/2001/XMLSchema-instance" xsi:schemaLocation="http://www.topografix.com/GPX/1/1 http://www.topografix.com/GPX/1/1/gpx.xsd" version="1.1" creator="VisuGPX - https://www.visugpx.com">
  <metadata>
    <name>secteur Saverne - Dabo - Petite Pierre</name>
  </metadata>
  <trk>
    <name><![CDATA[secteur Saverne - Dabo - Petite Pierre_30]]></name>
    <trkseg>
      <trkpt lat="48.72187" lon="7.31546">
        <ele>216.3</ele>
        <time>2020-05-10T13:45:40Z</time>
      </trkpt>
      <trkpt lat="48.72187" lon="7.31546">
        <ele>216.3</ele>
        <time>2020-05-10T13:45:40Z</time>
      </trkpt>
      <trkpt lat="48.72187" lon="7.31546">
        <ele>216.3</ele>
        <time>2020-05-10T13:45:40Z</time>
      </trkpt>
      <trkpt lat="48.72187" lon="7.31546">
        <ele>216.3</ele>
        <time>2020-05-10T13:45:40Z</time>
      </trkpt>
      <trkpt lat="48.72187" lon="7.31546">
        <ele>216.3</ele>
        <time>2020-05-10T13:45:40Z</time>
      </trkpt>
      <trkpt lat="48.72187" lon="7.31546">
        <ele>216.3</ele>
        <time>2020-05-10T13:45:40Z</time>
      </trkpt>
      <trkpt lat="48.72187" lon="7.31546">
        <ele>216.3</ele>
        <time>2020-05-10T13:45:40Z</time>
      </trkpt>
      <trkpt lat="48.72184" lon="7.31546">
        <ele>216.1</ele>
        <time>2020-05-10T13:45:42Z</time>
      </trkpt>
      <trkpt lat="48.72183" lon="7.31546">
        <ele>215.9</ele>
        <time>2020-05-10T13:45:43Z</time>
      </trkpt>
      <trkpt lat="48.72181" lon="7.31547">
        <ele>215.8</ele>
        <time>2020-05-10T13:45:45Z</time>
      </trkpt>
      <trkpt lat="48.7218" lon="7.31546">
        <ele>215.7</ele>
        <time>2020-05-10T13:45:47Z</time>
      </trkpt>
      <trkpt lat="48.72179" lon="7.31545">
        <ele>215.6</ele>
        <time>2020-05-10T13:45:48Z</time>
      </trkpt>
      <trkpt lat="48.72178" lon="7.31544">
        <ele>215.4</ele>
        <time>2020-05-10T13:45:50Z</time>
      </trkpt>
      <trkpt lat="48.72176" lon="7.31542">
        <ele>215.3</ele>
        <time>2020-05-10T13:45:52Z</time>
      </trkpt>
      <trkpt lat="48.72175" lon="7.31542">
        <ele>215.2</ele>
        <time>2020-05-10T13:45:53Z</time>
      </trkpt>
      <trkpt lat="48.72172" lon="7.3154">
        <ele>214.8</ele>
        <time>2020-05-10T13:45:55Z</time>
      </trkpt>
      <trkpt lat="48.72171" lon="7.31537">
        <ele>214</ele>
        <time>2020-05-10T13:45:57Z</time>
      </trkpt>
      <trkpt lat="48.72169" lon="7.31535">
        <ele>213.8</ele>
        <time>2020-05-10T13:45:59Z</time>
      </trkpt>
      <trkpt lat="48.72168" lon="7.31535">
        <ele>213.7</ele>
        <time>2020-05-10T13:46:00Z</time>
      </trkpt>
      <trkpt lat="48.72166" lon="7.31535">
        <ele>213.6</ele>
        <time>2020-05-10T13:46:02Z</time>
      </trkpt>
      <trkpt lat="48.72165" lon="7.31534">
        <ele>213.6</ele>
        <time>2020-05-10T13:46:03Z</time>
      </trkpt>
      <trkpt lat="48.72164" lon="7.31535">
        <ele>209.8</ele>
        <time>2020-05-10T13:46:04Z</time>
      </trkpt>
      <trkpt lat="48.72163" lon="7.31535">
        <ele>209.2</ele>
        <time>2020-05-10T13:46:05Z</time>
      </trkpt>
      <trkpt lat="48.7216" lon="7.31537">
        <ele>207.7</ele>
        <time>2020-05-10T13:46:07Z</time>
      </trkpt>
      <trkpt lat="48.72159" lon="7.31537">
        <ele>207.3</ele>
        <time>2020-05-10T13:46:08Z</time>
      </trkpt>
      <trkpt lat="48.72157" lon="7.3154">
        <ele>206.2</ele>
        <time>2020-05-10T13:46:10Z</time>
      </trkpt>
      <trkpt lat="48.72157" lon="7.31542">
        <ele>206.2</ele>
        <time>2020-05-10T13:46:11Z</time>
      </trkpt>
      <trkpt lat="48.72158" lon="7.31544">
        <ele>206.2</ele>
        <time>2020-05-10T13:46:13Z</time>
      </trkpt>
      <trkpt lat="48.72158" lon="7.31547">
        <ele>206.2</ele>
        <time>2020-05-10T13:46:14Z</time>
      </trkpt>
      <trkpt lat="48.72159" lon="7.31548">
        <ele>206.2</ele>
        <time>2020-05-10T13:46:15Z</time>
      </trkpt>
      <trkpt lat="48.7216" lon="7.31547">
        <ele>206.2</ele>
        <time>2020-05-10T13:46:17Z</time>
      </trkpt>
      <trkpt lat="48.72161" lon="7.31548">
        <ele>206.2</ele>
        <time>2020-05-10T13:46:18Z</time>
      </trkpt>
      <trkpt lat="48.72162" lon="7.31552">
        <ele>206.2</ele>
        <time>2020-05-10T13:46:20Z</time>
      </trkpt>
      <trkpt lat="48.72163" lon="7.31557">
        <ele>206.3</ele>
        <time>2020-05-10T13:46:21Z</time>
      </trkpt>
      <trkpt lat="48.72163" lon="7.31562">
        <ele>206.3</ele>
        <time>2020-05-10T13:46:22Z</time>
      </trkpt>
      <trkpt lat="48.72165" lon="7.31573">
        <ele>206.3</ele>
        <time>2020-05-10T13:46:24Z</time>
      </trkpt>
      <trkpt lat="48.72168" lon="7.31585">
        <ele>206.2</ele>
        <time>2020-05-10T13:46:26Z</time>
      </trkpt>
      <trkpt lat="48.72171" lon="7.31595">
        <ele>206.2</ele>
        <time>2020-05-10T13:46:28Z</time>
      </trkpt>
      <trkpt lat="48.72173" lon="7.316">
        <ele>206.2</ele>
        <time>2020-05-10T13:46:29Z</time>
      </trkpt>
      <trkpt lat="48.72176" lon="7.31605">
        <ele>206.2</ele>
        <time>2020-05-10T13:46:31Z</time>
      </trkpt>
      <trkpt lat="48.72178" lon="7.3161">
        <ele>206.2</ele>
        <time>2020-05-10T13:46:33Z</time>
      </trkpt>
      <trkpt lat="48.72178" lon="7.3161">
        <ele>206.2</ele>
        <time>2020-05-10T13:46:34Z</time>
      </trkpt>
      <trkpt lat="48.72177" lon="7.31612">
        <ele>206.2</ele>
        <time>2020-05-10T13:46:36Z</time>
      </trkpt>
      <trkpt lat="48.72175" lon="7.31612">
        <ele>206.2</ele>
        <time>2020-05-10T13:46:37Z</time>
      </trkpt>
      <trkpt lat="48.72173" lon="7.31611">
        <ele>207.2</ele>
        <time>2020-05-10T13:46:39Z</time>
      </trkpt>
      <trkpt lat="48.72172" lon="7.31611">
        <ele>207.1</ele>
        <time>2020-05-10T13:46:40Z</time>
      </trkpt>
      <trkpt lat="48.72171" lon="7.31611">
        <ele>207.1</ele>
        <time>2020-05-10T13:46:41Z</time>
      </trkpt>
      <trkpt lat="48.72171" lon="7.31611">
        <ele>207.1</ele>
        <time>2020-05-10T13:46:42Z</time>
      </trkpt>
      <trkpt lat="48.72168" lon="7.31612">
        <ele>207.1</ele>
        <time>2020-05-10T13:46:44Z</time>
      </trkpt>
      <trkpt lat="48.72166" lon="7.31613">
        <ele>207.1</ele>
        <time>2020-05-10T13:46:46Z</time>
      </trkpt>
      <trkpt lat="48.72164" lon="7.31614">
        <ele>207</ele>
        <time>2020-05-10T13:46:48Z</time>
      </trkpt>
      <trkpt lat="48.72162" lon="7.31614">
        <ele>199.5</ele>
        <time>2020-05-10T13:46:49Z</time>
      </trkpt>
      <trkpt lat="48.72159" lon="7.31614">
        <ele>199.6</ele>
        <time>2020-05-10T13:46:51Z</time>
      </trkpt>
      <trkpt lat="48.72157" lon="7.31613">
        <ele>199.6</ele>
        <time>2020-05-10T13:46:52Z</time>
      </trkpt>
      <trkpt lat="48.72155" lon="7.31612">
        <ele>199.6</ele>
        <time>2020-05-10T13:46:53Z</time>
      </trkpt>
      <trkpt lat="48.72154" lon="7.3161">
        <ele>199.6</ele>
        <time>2020-05-10T13:46:54Z</time>
      </trkpt>
      <trkpt lat="48.72153" lon="7.31608">
        <ele>199.6</ele>
        <time>2020-05-10T13:46:56Z</time>
      </trkpt>
      <trkpt lat="48.72153" lon="7.31601">
        <ele>199.7</ele>
        <time>2020-05-10T13:46:58Z</time>
      </trkpt>
      <trkpt lat="48.72152" lon="7.31597">
        <ele>199.7</ele>
        <time>2020-05-10T13:46:59Z</time>
      </trkpt>
      <trkpt lat="48.7215" lon="7.31585">
        <ele>199.7</ele>
        <time>2020-05-10T13:47:01Z</time>
      </trkpt>
      <trkpt lat="48.72148" lon="7.3158">
        <ele>199.8</ele>
        <time>2020-05-10T13:47:02Z</time>
      </trkpt>
      <trkpt lat="48.72145" lon="7.3157">
        <ele>199.8</ele>
        <time>2020-05-10T13:47:04Z</time>
      </trkpt>
      <trkpt lat="48.72141" lon="7.3156">
        <ele>199.9</ele>
        <time>2020-05-10T13:47:06Z</time>
      </trkpt>
      <trkpt lat="48.72134" lon="7.3155">
        <ele>199.8</ele>
        <time>2020-05-10T13:47:08Z</time>
      </trkpt>
      <trkpt lat="48.7213" lon="7.31544">
        <ele>199.8</ele>
        <time>2020-05-10T13:47:09Z</time>
      </trkpt>
      <trkpt lat="48.72123" lon="7.31526">
        <ele>199.6</ele>
        <time>2020-05-10T13:47:11Z</time>
      </trkpt>
      <trkpt lat="48.72119" lon="7.3151">
        <ele>199.6</ele>
        <time>2020-05-10T13:47:13Z</time>
      </trkpt>
      <trkpt lat="48.72118" lon="7.31496">
        <ele>199.6</ele>
        <time>2020-05-10T13:47:15Z</time>
      </trkpt>
      <trkpt lat="48.72116" lon="7.31491">
        <ele>199.6</ele>
        <time>2020-05-10T13:47:16Z</time>
      </trkpt>
      <trkpt lat="48.72114" lon="7.31489">
        <ele>199.6</ele>
        <time>2020-05-10T13:47:17Z</time>
      </trkpt>
      <trkpt lat="48.72108" lon="7.31489">
        <ele>199.7</ele>
        <time>2020-05-10T13:47:19Z</time>
      </trkpt>
      <trkpt lat="48.72101" lon="7.31489">
        <ele>199.8</ele>
        <time>2020-05-10T13:47:21Z</time>
      </trkpt>
      <trkpt lat="48.72097" lon="7.31489">
        <ele>199.9</ele>
        <time>2020-05-10T13:47:22Z</time>
      </trkpt>
      <trkpt lat="48.72089" lon="7.3149">
        <ele>200.2</ele>
        <time>2020-05-10T13:47:24Z</time>
      </trkpt>
      <trkpt lat="48.7208" lon="7.31492">
        <ele>200.5</ele>
        <time>2020-05-10T13:47:26Z</time>
      </trkpt>
      <trkpt lat="48.72076" lon="7.31492">
        <ele>200.6</ele>
        <time>2020-05-10T13:47:27Z</time>
      </trkpt>
      <trkpt lat="48.72073" lon="7.31492">
        <ele>200.7</ele>
        <time>2020-05-10T13:47:28Z</time>
      </trkpt>
      <trkpt lat="48.7207" lon="7.31491">
        <ele>200.8</ele>
        <time>2020-05-10T13:47:29Z</time>
      </trkpt>
      <trkpt lat="48.72065" lon="7.3149">
        <ele>201</ele>
        <time>2020-05-10T13:47:31Z</time>
      </trkpt>
      <trkpt lat="48.72064" lon="7.3149">
        <ele>201.3</ele>
        <time>2020-05-10T13:47:32Z</time>
      </trkpt>
      <trkpt lat="48.72064" lon="7.3149">
        <ele>201.3</ele>
        <time>2020-05-10T13:47:33Z</time>
      </trkpt>
      <trkpt lat="48.72065" lon="7.31491">
        <ele>201</ele>
        <time>2020-05-10T13:47:35Z</time>
      </trkpt>
      <trkpt lat="48.72062" lon="7.31489">
        <ele>201.3</ele>
        <time>2020-05-10T13:47:37Z</time>
      </trkpt>
      <trkpt lat="48.72061" lon="7.31486">
        <ele>201.3</ele>
        <time>2020-05-10T13:47:38Z</time>
      </trkpt>
      <trkpt lat="48.72059" lon="7.31477">
        <ele>201.3</ele>
        <time>2020-05-10T13:47:40Z</time>
      </trkpt>
      <trkpt lat="48.72055" lon="7.31466">
        <ele>201.7</ele>
        <time>2020-05-10T13:47:42Z</time>
      </trkpt>
      <trkpt lat="48.7205" lon="7.31461">
        <ele>201.9</ele>
        <time>2020-05-10T13:47:44Z</time>
      </trkpt>
      <trkpt lat="48.72048" lon="7.31462">
        <ele>202</ele>
        <time>2020-05-10T13:47:46Z</time>
      </trkpt>
      <trkpt lat="48.72048" lon="7.31463">
        <ele>202</ele>
        <time>2020-05-10T13:47:47Z</time>
      </trkpt>
      <trkpt lat="48.72046" lon="7.31462">
        <ele>202</ele>
        <time>2020-05-10T13:47:48Z</time>
      </trkpt>
      <trkpt lat="48.72044" lon="7.31459">
        <ele>202.2</ele>
        <time>2020-05-10T13:47:50Z</time>
      </trkpt>
      <trkpt lat="48.72042" lon="7.31457">
        <ele>202.2</ele>
        <time>2020-05-10T13:47:52Z</time>
      </trkpt>
      <trkpt lat="48.72042" lon="7.31456">
        <ele>202.3</ele>
        <time>2020-05-10T13:47:53Z</time>
      </trkpt>
      <trkpt lat="48.72039" lon="7.31454">
        <ele>202.4</ele>
        <time>2020-05-10T13:47:55Z</time>
      </trkpt>
      <trkpt lat="48.72037" lon="7.31452">
        <ele>202.4</ele>
        <time>2020-05-10T13:47:57Z</time>
      </trkpt>
      <trkpt lat="48.72037" lon="7.31451">
        <ele>202.5</ele>
        <time>2020-05-10T13:47:59Z</time>
      </trkpt>
      <trkpt lat="48.72036" lon="7.3145">
        <ele>202.5</ele>
        <time>2020-05-10T13:48:00Z</time>
      </trkpt>
      <trkpt lat="48.72035" lon="7.3145">
        <ele>202.5</ele>
        <time>2020-05-10T13:48:01Z</time>
      </trkpt>
      <trkpt lat="48.72034" lon="7.31449">
        <ele>202.5</ele>
        <time>2020-05-10T13:48:03Z</time>
      </trkpt>
      <trkpt lat="48.72033" lon="7.31449">
        <ele>202.6</ele>
        <time>2020-05-10T13:48:04Z</time>
      </trkpt>
      <trkpt lat="48.72033" lon="7.31449">
        <ele>202.6</ele>
        <time>2020-05-10T13:48:05Z</time>
      </trkpt>
      <trkpt lat="48.72033" lon="7.31449">
        <ele>202.6</ele>
        <time>2020-05-10T13:48:06Z</time>
      </trkpt>
      <trkpt lat="48.72032" lon="7.3145">
        <ele>202.6</ele>
        <time>2020-05-10T13:48:08Z</time>
      </trkpt>
      <trkpt lat="48.72032" lon="7.3145">
        <ele>202.6</ele>
        <time>2020-05-10T13:48:10Z</time>
      </trkpt>
      <trkpt lat="48.72031" lon="7.3145">
        <ele>202.6</ele>
        <time>2020-05-10T13:48:11Z</time>
      </trkpt>
      <trkpt lat="48.72031" lon="7.31449">
        <ele>202.6</ele>
        <time>2020-05-10T13:48:12Z</time>
      </trkpt>
      <trkpt lat="48.72031" lon="7.3145">
        <ele>202.6</ele>
        <time>2020-05-10T13:48:14Z</time>
      </trkpt>
      <trkpt lat="48.72031" lon="7.3145">
        <ele>202.6</ele>
        <time>2020-05-10T13:48:15Z</time>
      </trkpt>
      <trkpt lat="48.72031" lon="7.3145">
        <ele>202.6</ele>
        <time>2020-05-10T13:48:17Z</time>
      </trkpt>
      <trkpt lat="48.72031" lon="7.3145">
        <ele>202.7</ele>
        <time>2020-05-10T13:48:19Z</time>
      </trkpt>
      <trkpt lat="48.72031" lon="7.3145">
        <ele>202.7</ele>
        <time>2020-05-10T13:48:20Z</time>
      </trkpt>
      <trkpt lat="48.7203" lon="7.3145">
        <ele>202.7</ele>
        <time>2020-05-10T13:48:22Z</time>
      </trkpt>
      <trkpt lat="48.7203" lon="7.3145">
        <ele>202.7</ele>
        <time>2020-05-10T13:48:23Z</time>
      </trkpt>
      <trkpt lat="48.7203" lon="7.3145">
        <ele>202.8</ele>
        <time>2020-05-10T13:48:25Z</time>
      </trkpt>
      <trkpt lat="48.7203" lon="7.31449">
        <ele>202.8</ele>
        <time>2020-05-10T13:48:26Z</time>
      </trkpt>
      <trkpt lat="48.7203" lon="7.31449">
        <ele>202.8</ele>
        <time>2020-05-10T13:48:28Z</time>
      </trkpt>
      <trkpt lat="48.7203" lon="7.31448">
        <ele>202.8</ele>
        <time>2020-05-10T13:48:30Z</time>
      </trkpt>
      <trkpt lat="48.7203" lon="7.31448">
        <ele>202.8</ele>
        <time>2020-05-10T13:48:31Z</time>
      </trkpt>
      <trkpt lat="48.7203" lon="7.31448">
        <ele>202.8</ele>
        <time>2020-05-10T13:48:33Z</time>
      </trkpt>
      <trkpt lat="48.72025" lon="7.31446">
        <ele>203</ele>
        <time>2020-05-10T13:49:03Z</time>
      </trkpt>
      <trkpt lat="48.7202" lon="7.31443">
        <ele>203.1</ele>
        <time>2020-05-10T13:49:05Z</time>
      </trkpt>
      <trkpt lat="48.72014" lon="7.31437">
        <ele>203.5</ele>
        <time>2020-05-10T13:49:07Z</time>
      </trkpt>
      <trkpt lat="48.72006" lon="7.3143">
        <ele>203.9</ele>
        <time>2020-05-10T13:49:09Z</time>
      </trkpt>
      <trkpt lat="48.71998" lon="7.31427">
        <ele>204.2</ele>
        <time>2020-05-10T13:49:11Z</time>
      </trkpt>
      <trkpt lat="48.71993" lon="7.3142">
        <ele>204.2</ele>
        <time>2020-05-10T13:49:13Z</time>
      </trkpt>
      <trkpt lat="48.71989" lon="7.31415">
        <ele>204.2</ele>
        <time>2020-05-10T13:49:14Z</time>
      </trkpt>
      <trkpt lat="48.71981" lon="7.31406">
        <ele>204.3</ele>
        <time>2020-05-10T13:49:16Z</time>
      </trkpt>
      <trkpt lat="48.71973" lon="7.31397">
        <ele>204.3</ele>
        <time>2020-05-10T13:49:18Z</time>
      </trkpt>
      <trkpt lat="48.71965" lon="7.31388">
        <ele>204.3</ele>
        <time>2020-05-10T13:49:20Z</time>
      </trkpt>
      <trkpt lat="48.71955" lon="7.31382">
        <ele>204.3</ele>
        <time>2020-05-10T13:49:22Z</time>
      </trkpt>
      <trkpt lat="48.7195" lon="7.3138">
        <ele>204.3</ele>
        <time>2020-05-10T13:49:23Z</time>
      </trkpt>
      <trkpt lat="48.71941" lon="7.31379">
        <ele>204.3</ele>
        <time>2020-05-10T13:49:25Z</time>
      </trkpt>
      <trkpt lat="48.71937" lon="7.31379">
        <ele>204.3</ele>
        <time>2020-05-10T13:49:26Z</time>
      </trkpt>
      <trkpt lat="48.71928" lon="7.31382">
        <ele>204.3</ele>
        <time>2020-05-10T13:49:28Z</time>
      </trkpt>
      <trkpt lat="48.71924" lon="7.3139">
        <ele>204.3</ele>
        <time>2020-05-10T13:49:30Z</time>
      </trkpt>
      <trkpt lat="48.71917" lon="7.31398">
        <ele>204.4</ele>
        <time>2020-05-10T13:49:32Z</time>
      </trkpt>
      <trkpt lat="48.71908" lon="7.31404">
        <ele>204.4</ele>
        <time>2020-05-10T13:49:34Z</time>
      </trkpt>
      <trkpt lat="48.71902" lon="7.3141">
        <ele>204.4</ele>
        <time>2020-05-10T13:49:36Z</time>
      </trkpt>
      <trkpt lat="48.71899" lon="7.31413">
        <ele>204.4</ele>
        <time>2020-05-10T13:49:37Z</time>
      </trkpt>
      <trkpt lat="48.71895" lon="7.31421">
        <ele>204.4</ele>
        <time>2020-05-10T13:49:39Z</time>
      </trkpt>
      <trkpt lat="48.71893" lon="7.31425">
        <ele>204.4</ele>
        <time>2020-05-10T13:49:40Z</time>
      </trkpt>
      <trkpt lat="48.71886" lon="7.31437">
        <ele>204.5</ele>
        <time>2020-05-10T13:49:42Z</time>
      </trkpt>
      <trkpt lat="48.71882" lon="7.31445">
        <ele>204.6</ele>
        <time>2020-05-10T13:49:44Z</time>
      </trkpt>
      <trkpt lat="48.71879" lon="7.31452">
        <ele>204.7</ele>
        <time>2020-05-10T13:49:46Z</time>
      </trkpt>
      <trkpt lat="48.71879" lon="7.31452">
        <ele>204.7</ele>
        <time>2020-05-10T13:49:47Z</time>
      </trkpt>
      <trkpt lat="48.71878" lon="7.31451">
        <ele>204.7</ele>
        <time>2020-05-10T13:49:49Z</time>
      </trkpt>
      <trkpt lat="48.71877" lon="7.31451">
        <ele>204.7</ele>
        <time>2020-05-10T13:49:51Z</time>
      </trkpt>
      <trkpt lat="48.71877" lon="7.31451">
        <ele>204.7</ele>
        <time>2020-05-10T13:49:52Z</time>
      </trkpt>
      <trkpt lat="48.71877" lon="7.31451">
        <ele>204.7</ele>
        <time>2020-05-10T13:49:54Z</time>
      </trkpt>
      <trkpt lat="48.71877" lon="7.31452">
        <ele>204.7</ele>
        <time>2020-05-10T13:49:55Z</time>
      </trkpt>
      <trkpt lat="48.71877" lon="7.31452">
        <ele>204.7</ele>
        <time>2020-05-10T13:49:57Z</time>
      </trkpt>
      <trkpt lat="48.71877" lon="7.31453">
        <ele>204.7</ele>
        <time>2020-05-10T13:49:58Z</time>
      </trkpt>
      <trkpt lat="48.71876" lon="7.31453">
        <ele>204.7</ele>
        <time>2020-05-10T13:49:59Z</time>
      </trkpt>
      <trkpt lat="48.71876" lon="7.31453">
        <ele>204.7</ele>
        <time>2020-05-10T13:50:01Z</time>
      </trkpt>
      <trkpt lat="48.71879" lon="7.31457">
        <ele>204.8</ele>
        <time>2020-05-10T13:50:08Z</time>
      </trkpt>
      <trkpt lat="48.71879" lon="7.31457">
        <ele>204.8</ele>
        <time>2020-05-10T13:50:09Z</time>
      </trkpt>
      <trkpt lat="48.71879" lon="7.31457">
        <ele>204.8</ele>
        <time>2020-05-10T13:50:11Z</time>
      </trkpt>
      <trkpt lat="48.71879" lon="7.31457">
        <ele>204.8</ele>
        <time>2020-05-10T13:50:12Z</time>
      </trkpt>
      <trkpt lat="48.71879" lon="7.31457">
        <ele>204.8</ele>
        <time>2020-05-10T13:50:13Z</time>
      </trkpt>
      <trkpt lat="48.71879" lon="7.31457">
        <ele>204.8</ele>
        <time>2020-05-10T13:50:14Z</time>
      </trkpt>
      <trkpt lat="48.71879" lon="7.31458">
        <ele>204.8</ele>
        <time>2020-05-10T13:50:16Z</time>
      </trkpt>
      <trkpt lat="48.71879" lon="7.31458">
        <ele>204.8</ele>
        <time>2020-05-10T13:50:17Z</time>
      </trkpt>
      <trkpt lat="48.7188" lon="7.31458">
        <ele>204.8</ele>
        <time>2020-05-10T13:50:19Z</time>
      </trkpt>
      <trkpt lat="48.7188" lon="7.31461">
        <ele>204.9</ele>
        <time>2020-05-10T13:51:02Z</time>
      </trkpt>
      <trkpt lat="48.7188" lon="7.31463">
        <ele>204.9</ele>
        <time>2020-05-10T13:51:04Z</time>
      </trkpt>
      <trkpt lat="48.71874" lon="7.31463">
        <ele>205</ele>
        <time>2020-05-10T13:51:06Z</time>
      </trkpt>
      <trkpt lat="48.71869" lon="7.31463">
        <ele>205.1</ele>
        <time>2020-05-10T13:51:08Z</time>
      </trkpt>
      <trkpt lat="48.71861" lon="7.31459">
        <ele>205.1</ele>
        <time>2020-05-10T13:51:10Z</time>
      </trkpt>
      <trkpt lat="48.71857" lon="7.31445">
        <ele>210</ele>
        <time>2020-05-10T13:51:12Z</time>
      </trkpt>
      <trkpt lat="48.71858" lon="7.31439">
        <ele>211</ele>
        <time>2020-05-10T13:51:13Z</time>
      </trkpt>
      <trkpt lat="48.7186" lon="7.31425">
        <ele>212.9</ele>
        <time>2020-05-10T13:51:15Z</time>
      </trkpt>
      <trkpt lat="48.71861" lon="7.31419">
        <ele>213.7</ele>
        <time>2020-05-10T13:51:16Z</time>
      </trkpt>
      <trkpt lat="48.71862" lon="7.31407">
        <ele>215.4</ele>
        <time>2020-05-10T13:51:18Z</time>
      </trkpt>
      <trkpt lat="48.71865" lon="7.31396">
        <ele>217.1</ele>
        <time>2020-05-10T13:51:20Z</time>
      </trkpt>
      <trkpt lat="48.71866" lon="7.31386">
        <ele>218.6</ele>
        <time>2020-05-10T13:51:22Z</time>
      </trkpt>
      <trkpt lat="48.71866" lon="7.3138">
        <ele>219.5</ele>
        <time>2020-05-10T13:51:23Z</time>
      </trkpt>
      <trkpt lat="48.71869" lon="7.31371">
        <ele>221</ele>
        <time>2020-05-10T13:51:25Z</time>
      </trkpt>
      <trkpt lat="48.71871" lon="7.31362">
        <ele>222.6</ele>
        <time>2020-05-10T13:51:27Z</time>
      </trkpt>
      <trkpt lat="48.71872" lon="7.31356">
        <ele>222.7</ele>
        <time>2020-05-10T13:51:28Z</time>
      </trkpt>
      <trkpt lat="48.71874" lon="7.31351">
        <ele>222.8</ele>
        <time>2020-05-10T13:51:29Z</time>
      </trkpt>
      <trkpt lat="48.71877" lon="7.31342">
        <ele>223.1</ele>
        <time>2020-05-10T13:51:31Z</time>
      </trkpt>
      <trkpt lat="48.71878" lon="7.31337">
        <ele>223.3</ele>
        <time>2020-05-10T13:51:32Z</time>
      </trkpt>
      <trkpt lat="48.71879" lon="7.31333">
        <ele>223.4</ele>
        <time>2020-05-10T13:51:33Z</time>
      </trkpt>
      <trkpt lat="48.7188" lon="7.31325">
        <ele>223.8</ele>
        <time>2020-05-10T13:51:35Z</time>
      </trkpt>
      <trkpt lat="48.71881" lon="7.31321">
        <ele>224</ele>
        <time>2020-05-10T13:51:36Z</time>
      </trkpt>
      <trkpt lat="48.71884" lon="7.31314">
        <ele>224.4</ele>
        <time>2020-05-10T13:51:39Z</time>
      </trkpt>
      <trkpt lat="48.71886" lon="7.31311">
        <ele>224.7</ele>
        <time>2020-05-10T13:51:40Z</time>
      </trkpt>
      <trkpt lat="48.71887" lon="7.3131">
        <ele>224.8</ele>
        <time>2020-05-10T13:51:41Z</time>
      </trkpt>
      <trkpt lat="48.7189" lon="7.31304">
        <ele>225.1</ele>
        <time>2020-05-10T13:51:43Z</time>
      </trkpt>
      <trkpt lat="48.71892" lon="7.31298">
        <ele>225.6</ele>
        <time>2020-05-10T13:51:45Z</time>
      </trkpt>
      <trkpt lat="48.71895" lon="7.3129">
        <ele>226.1</ele>
        <time>2020-05-10T13:51:47Z</time>
      </trkpt>
      <trkpt lat="48.71896" lon="7.31288">
        <ele>226.2</ele>
        <time>2020-05-10T13:51:48Z</time>
      </trkpt>
      <trkpt lat="48.719" lon="7.31281">
        <ele>226.8</ele>
        <time>2020-05-10T13:51:50Z</time>
      </trkpt>
      <trkpt lat="48.71904" lon="7.31275">
        <ele>227.2</ele>
        <time>2020-05-10T13:51:52Z</time>
      </trkpt>
      <trkpt lat="48.71907" lon="7.31272">
        <ele>227.6</ele>
        <time>2020-05-10T13:51:53Z</time>
      </trkpt>
      <trkpt lat="48.71907" lon="7.31271">
        <ele>227.7</ele>
        <time>2020-05-10T13:51:54Z</time>
      </trkpt>
      <trkpt lat="48.71911" lon="7.31267">
        <ele>228.1</ele>
        <time>2020-05-10T13:51:56Z</time>
      </trkpt>
      <trkpt lat="48.71915" lon="7.31263">
        <ele>228.5</ele>
        <time>2020-05-10T13:51:58Z</time>
      </trkpt>
      <trkpt lat="48.71916" lon="7.3126">
        <ele>228.7</ele>
        <time>2020-05-10T13:51:59Z</time>
      </trkpt>
      <trkpt lat="48.71919" lon="7.31255">
        <ele>229</ele>
        <time>2020-05-10T13:52:01Z</time>
      </trkpt>
      <trkpt lat="48.71921" lon="7.31252">
        <ele>229.3</ele>
        <time>2020-05-10T13:52:02Z</time>
      </trkpt>
      <trkpt lat="48.71925" lon="7.31248">
        <ele>229.7</ele>
        <time>2020-05-10T13:52:04Z</time>
      </trkpt>
      <trkpt lat="48.71928" lon="7.31242">
        <ele>230.1</ele>
        <time>2020-05-10T13:52:06Z</time>
      </trkpt>
      <trkpt lat="48.71932" lon="7.31239">
        <ele>230.6</ele>
        <time>2020-05-10T13:52:08Z</time>
      </trkpt>
      <trkpt lat="48.71934" lon="7.31238">
        <ele>230.8</ele>
        <time>2020-05-10T13:52:09Z</time>
      </trkpt>
      <trkpt lat="48.71936" lon="7.31232">
        <ele>231.2</ele>
        <time>2020-05-10T13:52:11Z</time>
      </trkpt>
      <trkpt lat="48.71938" lon="7.31225">
        <ele>231.8</ele>
        <time>2020-05-10T13:52:13Z</time>
      </trkpt>
      <trkpt lat="48.71939" lon="7.31218">
        <ele>232.3</ele>
        <time>2020-05-10T13:52:15Z</time>
      </trkpt>
      <trkpt lat="48.7194" lon="7.31213">
        <ele>232.7</ele>
        <time>2020-05-10T13:52:16Z</time>
      </trkpt>
      <trkpt lat="48.71941" lon="7.31211">
        <ele>232.8</ele>
        <time>2020-05-10T13:52:17Z</time>
      </trkpt>
      <trkpt lat="48.71942" lon="7.31204">
        <ele>233.3</ele>
        <time>2020-05-10T13:52:19Z</time>
      </trkpt>
      <trkpt lat="48.71942" lon="7.31198">
        <ele>233.8</ele>
        <time>2020-05-10T13:52:21Z</time>
      </trkpt>
      <trkpt lat="48.71942" lon="7.31195">
        <ele>234</ele>
        <time>2020-05-10T13:52:22Z</time>
      </trkpt>
      <trkpt lat="48.71941" lon="7.31188">
        <ele>234.4</ele>
        <time>2020-05-10T13:52:24Z</time>
      </trkpt>
      <trkpt lat="48.7194" lon="7.31181">
        <ele>234.9</ele>
        <time>2020-05-10T13:52:26Z</time>
      </trkpt>
      <trkpt lat="48.71939" lon="7.31175">
        <ele>235.4</ele>
        <time>2020-05-10T13:52:28Z</time>
      </trkpt>
      <trkpt lat="48.71937" lon="7.3117">
        <ele>235.9</ele>
        <time>2020-05-10T13:52:30Z</time>
      </trkpt>
      <trkpt lat="48.71936" lon="7.31163">
        <ele>236.4</ele>
        <time>2020-05-10T13:52:32Z</time>
      </trkpt>
      <trkpt lat="48.71936" lon="7.3116">
        <ele>236.6</ele>
        <time>2020-05-10T13:52:33Z</time>
      </trkpt>
      <trkpt lat="48.71934" lon="7.31154">
        <ele>237.1</ele>
        <time>2020-05-10T13:52:35Z</time>
      </trkpt>
      <trkpt lat="48.71932" lon="7.31146">
        <ele>237.7</ele>
        <time>2020-05-10T13:52:37Z</time>
      </trkpt>
      <trkpt lat="48.71933" lon="7.31141">
        <ele>238.1</ele>
        <time>2020-05-10T13:52:39Z</time>
      </trkpt>
      <trkpt lat="48.71934" lon="7.31136">
        <ele>238.5</ele>
        <time>2020-05-10T13:52:41Z</time>
      </trkpt>
      <trkpt lat="48.71935" lon="7.3113">
        <ele>238.9</ele>
        <time>2020-05-10T13:52:43Z</time>
      </trkpt>
      <trkpt lat="48.71936" lon="7.31124">
        <ele>239.3</ele>
        <time>2020-05-10T13:52:45Z</time>
      </trkpt>
      <trkpt lat="48.71936" lon="7.31122">
        <ele>239.5</ele>
        <time>2020-05-10T13:52:46Z</time>
      </trkpt>
      <trkpt lat="48.71936" lon="7.31114">
        <ele>240.1</ele>
        <time>2020-05-10T13:52:48Z</time>
      </trkpt>
      <trkpt lat="48.71936" lon="7.31111">
        <ele>240.3</ele>
        <time>2020-05-10T13:52:49Z</time>
      </trkpt>
      <trkpt lat="48.71936" lon="7.31104">
        <ele>240.8</ele>
        <time>2020-05-10T13:52:51Z</time>
      </trkpt>
      <trkpt lat="48.71935" lon="7.31097">
        <ele>241.4</ele>
        <time>2020-05-10T13:52:53Z</time>
      </trkpt>
      <trkpt lat="48.71934" lon="7.3109">
        <ele>241.9</ele>
        <time>2020-05-10T13:52:55Z</time>
      </trkpt>
      <trkpt lat="48.71934" lon="7.31087">
        <ele>242.1</ele>
        <time>2020-05-10T13:52:56Z</time>
      </trkpt>
      <trkpt lat="48.71931" lon="7.31082">
        <ele>242.6</ele>
        <time>2020-05-10T13:52:58Z</time>
      </trkpt>
      <trkpt lat="48.7193" lon="7.31074">
        <ele>243.1</ele>
        <time>2020-05-10T13:53:00Z</time>
      </trkpt>
      <trkpt lat="48.7193" lon="7.31071">
        <ele>243.3</ele>
        <time>2020-05-10T13:53:01Z</time>
      </trkpt>
      <trkpt lat="48.71929" lon="7.31065">
        <ele>243.7</ele>
        <time>2020-05-10T13:53:03Z</time>
      </trkpt>
      <trkpt lat="48.71928" lon="7.31058">
        <ele>244.3</ele>
        <time>2020-05-10T13:53:05Z</time>
      </trkpt>
      <trkpt lat="48.71926" lon="7.31052">
        <ele>244.7</ele>
        <time>2020-05-10T13:53:07Z</time>
      </trkpt>
      <trkpt lat="48.71925" lon="7.31045">
        <ele>245.3</ele>
        <time>2020-05-10T13:53:09Z</time>
      </trkpt>
      <trkpt lat="48.71925" lon="7.3104">
        <ele>245.6</ele>
        <time>2020-05-10T13:53:10Z</time>
      </trkpt>
      <trkpt lat="48.71924" lon="7.31039">
        <ele>245.7</ele>
        <time>2020-05-10T13:53:11Z</time>
      </trkpt>
      <trkpt lat="48.71923" lon="7.31033">
        <ele>246.2</ele>
        <time>2020-05-10T13:53:13Z</time>
      </trkpt>
      <trkpt lat="48.71923" lon="7.31029">
        <ele>246.4</ele>
        <time>2020-05-10T13:53:14Z</time>
      </trkpt>
      <trkpt lat="48.71923" lon="7.31023">
        <ele>246.8</ele>
        <time>2020-05-10T13:53:16Z</time>
      </trkpt>
      <trkpt lat="48.71922" lon="7.31021">
        <ele>247</ele>
        <time>2020-05-10T13:53:17Z</time>
      </trkpt>
      <trkpt lat="48.7192" lon="7.31015">
        <ele>247.4</ele>
        <time>2020-05-10T13:53:19Z</time>
      </trkpt>
      <trkpt lat="48.71919" lon="7.31009">
        <ele>247.8</ele>
        <time>2020-05-10T13:53:21Z</time>
      </trkpt>
      <trkpt lat="48.71919" lon="7.31004">
        <ele>248.2</ele>
        <time>2020-05-10T13:53:23Z</time>
      </trkpt>
      <trkpt lat="48.7192" lon="7.31002">
        <ele>248.3</ele>
        <time>2020-05-10T13:53:24Z</time>
      </trkpt>
      <trkpt lat="48.7192" lon="7.30997">
        <ele>248.7</ele>
        <time>2020-05-10T13:53:26Z</time>
      </trkpt>
      <trkpt lat="48.71921" lon="7.3099">
        <ele>249.1</ele>
        <time>2020-05-10T13:53:28Z</time>
      </trkpt>
      <trkpt lat="48.71922" lon="7.30988">
        <ele>249.2</ele>
        <time>2020-05-10T13:53:29Z</time>
      </trkpt>
      <trkpt lat="48.71922" lon="7.30986">
        <ele>249.4</ele>
        <time>2020-05-10T13:53:30Z</time>
      </trkpt>
      <trkpt lat="48.71923" lon="7.30979">
        <ele>249.8</ele>
        <time>2020-05-10T13:53:32Z</time>
      </trkpt>
      <trkpt lat="48.71923" lon="7.30973">
        <ele>250.1</ele>
        <time>2020-05-10T13:53:34Z</time>
      </trkpt>
      <trkpt lat="48.71922" lon="7.30968">
        <ele>250.5</ele>
        <time>2020-05-10T13:53:35Z</time>
      </trkpt>
      <trkpt lat="48.71922" lon="7.30966">
        <ele>250.6</ele>
        <time>2020-05-10T13:53:36Z</time>
      </trkpt>
      <trkpt lat="48.7192" lon="7.3096">
        <ele>251</ele>
        <time>2020-05-10T13:53:38Z</time>
      </trkpt>
      <trkpt lat="48.71919" lon="7.30955">
        <ele>251.3</ele>
        <time>2020-05-10T13:53:39Z</time>
      </trkpt>
      <trkpt lat="48.71919" lon="7.30953">
        <ele>251.4</ele>
        <time>2020-05-10T13:53:40Z</time>
      </trkpt>
      <trkpt lat="48.71919" lon="7.30947">
        <ele>251.8</ele>
        <time>2020-05-10T13:53:42Z</time>
      </trkpt>
      <trkpt lat="48.7192" lon="7.30944">
        <ele>252</ele>
        <time>2020-05-10T13:53:43Z</time>
      </trkpt>
      <trkpt lat="48.7192" lon="7.30938">
        <ele>252.5</ele>
        <time>2020-05-10T13:53:45Z</time>
      </trkpt>
      <trkpt lat="48.71919" lon="7.30935">
        <ele>252.6</ele>
        <time>2020-05-10T13:53:46Z</time>
      </trkpt>
      <trkpt lat="48.71919" lon="7.30929">
        <ele>253</ele>
        <time>2020-05-10T13:53:48Z</time>
      </trkpt>
      <trkpt lat="48.71919" lon="7.30926">
        <ele>253.2</ele>
        <time>2020-05-10T13:53:49Z</time>
      </trkpt>
      <trkpt lat="48.71917" lon="7.30921">
        <ele>253.7</ele>
        <time>2020-05-10T13:53:51Z</time>
      </trkpt>
      <trkpt lat="48.71917" lon="7.30916">
        <ele>254</ele>
        <time>2020-05-10T13:53:52Z</time>
      </trkpt>
      <trkpt lat="48.71917" lon="7.30914">
        <ele>254.1</ele>
        <time>2020-05-10T13:53:53Z</time>
      </trkpt>
      <trkpt lat="48.71917" lon="7.30909">
        <ele>254.5</ele>
        <time>2020-05-10T13:53:54Z</time>
      </trkpt>
      <trkpt lat="48.71916" lon="7.30907">
        <ele>254.7</ele>
        <time>2020-05-10T13:53:55Z</time>
      </trkpt>
      <trkpt lat="48.71916" lon="7.30901">
        <ele>255.2</ele>
        <time>2020-05-10T13:53:57Z</time>
      </trkpt>
      <trkpt lat="48.71916" lon="7.30896">
        <ele>255.5</ele>
        <time>2020-05-10T13:53:58Z</time>
      </trkpt>
      <trkpt lat="48.71916" lon="7.30894">
        <ele>255.6</ele>
        <time>2020-05-10T13:53:59Z</time>
      </trkpt>
      <trkpt lat="48.71915" lon="7.30887">
        <ele>256.1</ele>
        <time>2020-05-10T13:54:01Z</time>
      </trkpt>
      <trkpt lat="48.71915" lon="7.30881">
        <ele>256.6</ele>
        <time>2020-05-10T13:54:03Z</time>
      </trkpt>
      <trkpt lat="48.71914" lon="7.30877">
        <ele>256.9</ele>
        <time>2020-05-10T13:54:04Z</time>
      </trkpt>
      <trkpt lat="48.71915" lon="7.30871">
        <ele>257.4</ele>
        <time>2020-05-10T13:54:06Z</time>
      </trkpt>
      <trkpt lat="48.71914" lon="7.30866">
        <ele>257.7</ele>
        <time>2020-05-10T13:54:08Z</time>
      </trkpt>
      <trkpt lat="48.71914" lon="7.30863">
        <ele>257.9</ele>
        <time>2020-05-10T13:54:09Z</time>
      </trkpt>
      <trkpt lat="48.71912" lon="7.30858">
        <ele>258.3</ele>
        <time>2020-05-10T13:54:11Z</time>
      </trkpt>
      <trkpt lat="48.71912" lon="7.30854">
        <ele>258.6</ele>
        <time>2020-05-10T13:54:12Z</time>
      </trkpt>
      <trkpt lat="48.71911" lon="7.30848">
        <ele>259</ele>
        <time>2020-05-10T13:54:14Z</time>
      </trkpt>
      <trkpt lat="48.71911" lon="7.30841">
        <ele>259.5</ele>
        <time>2020-05-10T13:54:16Z</time>
      </trkpt>
      <trkpt lat="48.71911" lon="7.30832">
        <ele>260</ele>
        <time>2020-05-10T13:54:18Z</time>
      </trkpt>
      <trkpt lat="48.71911" lon="7.3083">
        <ele>260.2</ele>
        <time>2020-05-10T13:54:19Z</time>
      </trkpt>
      <trkpt lat="48.7191" lon="7.30824">
        <ele>260.6</ele>
        <time>2020-05-10T13:54:21Z</time>
      </trkpt>
      <trkpt lat="48.71909" lon="7.30818">
        <ele>261</ele>
        <time>2020-05-10T13:54:23Z</time>
      </trkpt>
      <trkpt lat="48.71909" lon="7.30815">
        <ele>261.2</ele>
        <time>2020-05-10T13:54:24Z</time>
      </trkpt>
      <trkpt lat="48.71909" lon="7.30808">
        <ele>261.6</ele>
        <time>2020-05-10T13:54:26Z</time>
      </trkpt>
      <trkpt lat="48.71909" lon="7.30804">
        <ele>261.9</ele>
        <time>2020-05-10T13:54:28Z</time>
      </trkpt>
      <trkpt lat="48.71909" lon="7.30801">
        <ele>262</ele>
        <time>2020-05-10T13:54:29Z</time>
      </trkpt>
      <trkpt lat="48.71908" lon="7.30798">
        <ele>262.2</ele>
        <time>2020-05-10T13:54:30Z</time>
      </trkpt>
      <trkpt lat="48.71908" lon="7.30795">
        <ele>262.4</ele>
        <time>2020-05-10T13:54:31Z</time>
      </trkpt>
      <trkpt lat="48.71908" lon="7.30788">
        <ele>262.8</ele>
        <time>2020-05-10T13:54:33Z</time>
      </trkpt>
      <trkpt lat="48.71906" lon="7.30781">
        <ele>263.2</ele>
        <time>2020-05-10T13:54:35Z</time>
      </trkpt>
      <trkpt lat="48.71905" lon="7.30778">
        <ele>263.4</ele>
        <time>2020-05-10T13:54:36Z</time>
      </trkpt>
      <trkpt lat="48.71905" lon="7.30771">
        <ele>263.8</ele>
        <time>2020-05-10T13:54:38Z</time>
      </trkpt>
      <trkpt lat="48.71904" lon="7.30767">
        <ele>264</ele>
        <time>2020-05-10T13:54:39Z</time>
      </trkpt>
      <trkpt lat="48.71905" lon="7.30761">
        <ele>264.4</ele>
        <time>2020-05-10T13:54:41Z</time>
      </trkpt>
      <trkpt lat="48.71905" lon="7.30755">
        <ele>264.7</ele>
        <time>2020-05-10T13:54:43Z</time>
      </trkpt>
      <trkpt lat="48.71904" lon="7.3075">
        <ele>264.9</ele>
        <time>2020-05-10T13:54:45Z</time>
      </trkpt>
      <trkpt lat="48.71903" lon="7.30743">
        <ele>265.2</ele>
        <time>2020-05-10T13:54:47Z</time>
      </trkpt>
      <trkpt lat="48.71903" lon="7.3074">
        <ele>265.3</ele>
        <time>2020-05-10T13:54:48Z</time>
      </trkpt>
      <trkpt lat="48.71902" lon="7.30734">
        <ele>265.6</ele>
        <time>2020-05-10T13:54:50Z</time>
      </trkpt>
      <trkpt lat="48.71901" lon="7.30727">
        <ele>265.9</ele>
        <time>2020-05-10T13:54:52Z</time>
      </trkpt>
      <trkpt lat="48.719" lon="7.30723">
        <ele>266.1</ele>
        <time>2020-05-10T13:54:53Z</time>
      </trkpt>
      <trkpt lat="48.719" lon="7.30722">
        <ele>266.1</ele>
        <time>2020-05-10T13:54:54Z</time>
      </trkpt>
      <trkpt lat="48.719" lon="7.30717">
        <ele>266.3</ele>
        <time>2020-05-10T13:54:56Z</time>
      </trkpt>
      <trkpt lat="48.719" lon="7.30711">
        <ele>266.6</ele>
        <time>2020-05-10T13:54:58Z</time>
      </trkpt>
      <trkpt lat="48.719" lon="7.30707">
        <ele>266.7</ele>
        <time>2020-05-10T13:54:59Z</time>
      </trkpt>
      <trkpt lat="48.71899" lon="7.307">
        <ele>267</ele>
        <time>2020-05-10T13:55:01Z</time>
      </trkpt>
      <trkpt lat="48.71898" lon="7.30695">
        <ele>267.2</ele>
        <time>2020-05-10T13:55:02Z</time>
      </trkpt>
      <trkpt lat="48.71897" lon="7.30694">
        <ele>267.3</ele>
        <time>2020-05-10T13:55:03Z</time>
      </trkpt>
      <trkpt lat="48.71897" lon="7.30687">
        <ele>267.5</ele>
        <time>2020-05-10T13:55:05Z</time>
      </trkpt>
      <trkpt lat="48.71897" lon="7.30679">
        <ele>267.9</ele>
        <time>2020-05-10T13:55:07Z</time>
      </trkpt>
      <trkpt lat="48.71896" lon="7.30675">
        <ele>268</ele>
        <time>2020-05-10T13:55:08Z</time>
      </trkpt>
      <trkpt lat="48.71895" lon="7.30668">
        <ele>268.3</ele>
        <time>2020-05-10T13:55:10Z</time>
      </trkpt>
      <trkpt lat="48.71894" lon="7.30662">
        <ele>268.5</ele>
        <time>2020-05-10T13:55:12Z</time>
      </trkpt>
      <trkpt lat="48.71893" lon="7.30654">
        <ele>268.8</ele>
        <time>2020-05-10T13:55:14Z</time>
      </trkpt>
      <trkpt lat="48.71891" lon="7.30646">
        <ele>269</ele>
        <time>2020-05-10T13:55:16Z</time>
      </trkpt>
      <trkpt lat="48.71891" lon="7.30641">
        <ele>269.2</ele>
        <time>2020-05-10T13:55:17Z</time>
      </trkpt>
      <trkpt lat="48.71888" lon="7.30634">
        <ele>269.4</ele>
        <time>2020-05-10T13:55:19Z</time>
      </trkpt>
      <trkpt lat="48.71886" lon="7.30624">
        <ele>269.7</ele>
        <time>2020-05-10T13:55:21Z</time>
      </trkpt>
      <trkpt lat="48.71885" lon="7.30619">
        <ele>269.8</ele>
        <time>2020-05-10T13:55:22Z</time>
      </trkpt>
      <trkpt lat="48.71882" lon="7.3061">
        <ele>270.1</ele>
        <time>2020-05-10T13:55:24Z</time>
      </trkpt>
      <trkpt lat="48.71881" lon="7.306">
        <ele>270.4</ele>
        <time>2020-05-10T13:55:26Z</time>
      </trkpt>
      <trkpt lat="48.71879" lon="7.3059">
        <ele>270.6</ele>
        <time>2020-05-10T13:55:28Z</time>
      </trkpt>
      <trkpt lat="48.71877" lon="7.30582">
        <ele>270.7</ele>
        <time>2020-05-10T13:55:30Z</time>
      </trkpt>
      <trkpt lat="48.71876" lon="7.30578">
        <ele>270.8</ele>
        <time>2020-05-10T13:55:31Z</time>
      </trkpt>
      <trkpt lat="48.71875" lon="7.30573">
        <ele>270.9</ele>
        <time>2020-05-10T13:55:32Z</time>
      </trkpt>
      <trkpt lat="48.71872" lon="7.30565">
        <ele>271</ele>
        <time>2020-05-10T13:55:34Z</time>
      </trkpt>
      <trkpt lat="48.71869" lon="7.30554">
        <ele>271.2</ele>
        <time>2020-05-10T13:55:36Z</time>
      </trkpt>
      <trkpt lat="48.71864" lon="7.30544">
        <ele>271.4</ele>
        <time>2020-05-10T13:55:38Z</time>
      </trkpt>
      <trkpt lat="48.71862" lon="7.3054">
        <ele>271.5</ele>
        <time>2020-05-10T13:55:39Z</time>
      </trkpt>
      <trkpt lat="48.71859" lon="7.30533">
        <ele>271.6</ele>
        <time>2020-05-10T13:55:41Z</time>
      </trkpt>
      <trkpt lat="48.71858" lon="7.30528">
        <ele>271.7</ele>
        <time>2020-05-10T13:55:42Z</time>
      </trkpt>
      <trkpt lat="48.71857" lon="7.30523">
        <ele>271.7</ele>
        <time>2020-05-10T13:55:43Z</time>
      </trkpt>
      <trkpt lat="48.71855" lon="7.30513">
        <ele>271.9</ele>
        <time>2020-05-10T13:55:45Z</time>
      </trkpt>
      <trkpt lat="48.71852" lon="7.30502">
        <ele>272</ele>
        <time>2020-05-10T13:55:47Z</time>
      </trkpt>
      <trkpt lat="48.71848" lon="7.30493">
        <ele>272.2</ele>
        <time>2020-05-10T13:55:49Z</time>
      </trkpt>
      <trkpt lat="48.71846" lon="7.30488">
        <ele>272.3</ele>
        <time>2020-05-10T13:55:50Z</time>
      </trkpt>
      <trkpt lat="48.71843" lon="7.30477">
        <ele>272.4</ele>
        <time>2020-05-10T13:55:52Z</time>
      </trkpt>
      <trkpt lat="48.71841" lon="7.30466">
        <ele>272.6</ele>
        <time>2020-05-10T13:55:54Z</time>
      </trkpt>
      <trkpt lat="48.71839" lon="7.30454">
        <ele>272.7</ele>
        <time>2020-05-10T13:55:56Z</time>
      </trkpt>
      <trkpt lat="48.71839" lon="7.30448">
        <ele>272.8</ele>
        <time>2020-05-10T13:55:57Z</time>
      </trkpt>
      <trkpt lat="48.71839" lon="7.30442">
        <ele>272.9</ele>
        <time>2020-05-10T13:55:58Z</time>
      </trkpt>
      <trkpt lat="48.71842" lon="7.30429">
        <ele>273.1</ele>
        <time>2020-05-10T13:56:00Z</time>
      </trkpt>
      <trkpt lat="48.71846" lon="7.3042">
        <ele>273.3</ele>
        <time>2020-05-10T13:56:02Z</time>
      </trkpt>
      <trkpt lat="48.7185" lon="7.30411">
        <ele>273.4</ele>
        <time>2020-05-10T13:56:04Z</time>
      </trkpt>
      <trkpt lat="48.71855" lon="7.30401">
        <ele>273.7</ele>
        <time>2020-05-10T13:56:06Z</time>
      </trkpt>
    </trkseg>
  </trk>
</gpx>